createdAt,value
2023-02-12T00:00:17.454Z,11.6
2023-02-12T00:02:17.506Z,11.6
2023-02-12T00:04:17.424Z,11.6
2023-02-12T00:06:17.436Z,11.8
2023-02-12T00:08:17.423Z,11.6
2023-02-12T00:10:17.443Z,11.4
2023-02-12T00:12:17.425Z,11.4
2023-02-12T00:14:17.428Z,11.5
2023-02-12T00:16:17.526Z,11.5
2023-02-12T00:18:17.406Z,11.6
2023-02-12T00:20:17.393Z,11.5
2023-02-12T00:22:17.443Z,11.4
2023-02-12T00:24:17.424Z,11.4
2023-02-12T00:26:17.393Z,11.4
2023-02-12T00:28:17.604Z,11.4
2023-02-12T00:30:17.392Z,11.3
2023-02-12T00:32:17.403Z,11.4
2023-02-12T00:34:17.398Z,11.4
2023-02-12T00:36:17.396Z,11.4
2023-02-12T00:38:17.415Z,11.4
2023-02-12T00:40:17.408Z,11.5
2023-02-12T00:42:17.365Z,11.5
2023-02-12T00:44:17.380Z,11.4
2023-02-12T00:46:17.428Z,11.4
2023-02-12T00:48:17.370Z,11.5
2023-02-12T00:50:17.379Z,11.5
2023-02-12T00:52:17.453Z,11.5
2023-02-12T00:54:17.407Z,11.5
2023-02-12T00:56:17.377Z,11.5
2023-02-12T00:58:18.957Z,11.5
2023-02-12T01:00:17.980Z,11.3
2023-02-12T01:02:17.354Z,11.4
2023-02-12T01:04:17.370Z,11.3
2023-02-12T01:06:17.340Z,11.4
2023-02-12T01:08:17.354Z,11.4
2023-02-12T01:10:17.360Z,11.4
2023-02-12T01:12:17.317Z,11.4
2023-02-12T01:14:17.339Z,11.4
2023-02-12T01:16:17.369Z,11.4
2023-02-12T01:18:17.346Z,11.5
2023-02-12T01:20:17.394Z,11.4
2023-02-12T01:22:17.353Z,11.3
2023-02-12T01:24:17.381Z,11.3
2023-02-12T01:26:17.351Z,11.4
2023-02-12T01:28:17.407Z,11.4
2023-02-12T01:30:17.643Z,11.3
2023-02-12T01:32:17.435Z,11.3
2023-02-12T01:34:17.323Z,11.2
2023-02-12T01:36:17.339Z,11.2
2023-02-12T01:38:17.324Z,11.2
2023-02-12T01:40:17.337Z,11.2
2023-02-12T01:42:17.310Z,11.1
2023-02-12T01:44:17.343Z,11
2023-02-12T01:46:17.375Z,11.1
2023-02-12T01:48:17.368Z,11.2
2023-02-12T01:50:17.296Z,11.2
2023-02-12T01:52:17.328Z,11.2
2023-02-12T01:54:17.286Z,11.2
2023-02-12T01:56:17.301Z,11.2
2023-02-12T01:58:17.291Z,11.3
2023-02-12T02:00:17.289Z,11.3
2023-02-12T02:02:17.283Z,11.3
2023-02-12T02:04:17.302Z,11.3
2023-02-12T02:06:17.266Z,11.3
2023-02-12T02:08:17.291Z,11.4
2023-02-12T02:10:17.325Z,11.4
2023-02-12T02:12:17.278Z,11.4
2023-02-12T02:14:17.268Z,11.3
2023-02-12T02:16:17.301Z,11.2
2023-02-12T02:18:17.280Z,11.2
2023-02-12T02:20:17.240Z,11.2
2023-02-12T02:22:17.307Z,11.3
2023-02-12T02:24:17.408Z,11.3
2023-02-12T02:26:17.268Z,11.2
2023-02-12T02:28:17.289Z,11.2
2023-02-12T02:30:17.325Z,11.1
2023-02-12T02:32:17.254Z,11.1
2023-02-12T02:34:17.257Z,11.1
2023-02-12T02:36:17.258Z,11.1
2023-02-12T02:38:17.238Z,11.2
2023-02-12T02:40:17.253Z,11.2
2023-02-12T02:42:17.255Z,11.2
2023-02-12T02:44:17.236Z,11.2
2023-02-12T02:46:17.281Z,11.2
2023-02-12T02:48:17.253Z,11.2
2023-02-12T02:50:17.241Z,11.2
2023-02-12T02:52:17.213Z,11.2
2023-02-12T02:54:17.237Z,11.2
2023-02-12T02:56:17.333Z,11.2
2023-02-12T02:58:17.209Z,11.3
2023-02-12T03:00:17.234Z,11.3
2023-02-12T03:02:17.257Z,11.3
2023-02-12T03:04:17.196Z,11.2
2023-02-12T03:06:17.181Z,11.2
2023-02-12T03:08:17.171Z,11.3
2023-02-12T03:10:17.190Z,11.3
2023-02-12T03:12:17.187Z,11.3
2023-02-12T03:14:17.200Z,11.3
2023-02-12T03:16:17.266Z,11.4
2023-02-12T03:18:17.245Z,11.4
2023-02-12T03:20:17.219Z,11.3
2023-02-12T03:22:17.210Z,11.3
2023-02-12T03:24:17.187Z,11.3
2023-02-12T03:26:17.185Z,11.3
2023-02-12T03:28:17.249Z,11.4
2023-02-12T03:30:17.178Z,11.4
2023-02-12T03:32:17.170Z,11.3
2023-02-12T03:34:17.176Z,11.2
2023-02-12T03:36:17.219Z,11.1
2023-02-12T03:38:17.299Z,11.1
2023-02-12T03:40:17.197Z,11.1
2023-02-12T03:42:17.162Z,11.1
2023-02-12T03:44:17.156Z,11.1
2023-02-12T03:46:17.239Z,11.1
2023-02-12T03:48:17.155Z,11.1
2023-02-12T03:50:17.142Z,11.1
2023-02-12T03:52:17.159Z,11.2
2023-02-12T03:54:17.136Z,11.1
2023-02-12T03:56:17.117Z,11.1
2023-02-12T03:58:17.161Z,11.2
2023-02-12T04:00:17.179Z,11.1
2023-02-12T04:02:17.164Z,11.1
2023-02-12T04:04:17.198Z,11.2
2023-02-12T04:06:17.126Z,11.2
2023-02-12T04:08:17.105Z,11.2
2023-02-12T04:10:17.180Z,11.2
2023-02-12T04:12:17.201Z,11.2
2023-02-12T04:14:17.116Z,11.2
2023-02-12T04:16:17.132Z,11.2
2023-02-12T04:18:17.101Z,11.2
2023-02-12T04:20:17.143Z,11.2
2023-02-12T04:22:17.100Z,11.2
2023-02-12T04:24:17.098Z,11.2
2023-02-12T04:26:17.117Z,11.2
2023-02-12T04:28:17.103Z,11.4
2023-02-12T04:30:17.110Z,11.3
2023-02-12T04:32:17.100Z,11.3
2023-02-12T04:34:17.110Z,11.3
2023-02-12T04:36:17.090Z,11.3
2023-02-12T04:38:17.094Z,11.4
2023-02-12T04:40:17.069Z,11.4
2023-02-12T04:42:17.204Z,11.4
2023-02-12T04:44:17.082Z,11.4
2023-02-12T04:46:17.190Z,11.4
2023-02-12T04:48:17.175Z,11.4
2023-02-12T04:50:17.073Z,11.4
2023-02-12T04:52:17.085Z,11.4
2023-02-12T04:54:17.070Z,11.3
2023-02-12T04:56:17.071Z,11.4
2023-02-12T04:58:17.097Z,11.4
2023-02-12T05:00:17.083Z,11.3
2023-02-12T05:02:17.061Z,11.3
2023-02-12T05:04:17.051Z,11.3
2023-02-12T05:06:17.109Z,11.2
2023-02-12T05:08:17.109Z,11.3
2023-02-12T05:10:17.054Z,11.3
2023-02-12T05:12:17.060Z,11.3
2023-02-12T05:14:17.083Z,11.3
2023-02-12T05:16:17.126Z,11.3
2023-02-12T05:18:17.036Z,11.2
2023-02-12T05:20:17.078Z,11.1
2023-02-12T05:22:17.016Z,11.1
2023-02-12T05:24:17.043Z,11.2
2023-02-12T05:26:17.024Z,11.1
2023-02-12T05:28:17.058Z,11.2
2023-02-12T05:30:17.043Z,11.1
2023-02-12T05:32:17.080Z,11.1
2023-02-12T05:34:17.047Z,11.1
2023-02-12T05:36:17.008Z,11.2
2023-02-12T05:38:17.928Z,11.2
2023-02-12T05:40:17.011Z,11.1
2023-02-12T05:42:16.998Z,11.2
2023-02-12T05:44:17.007Z,11.3
2023-02-12T05:46:17.043Z,11.2
2023-02-12T05:48:16.995Z,11.4
2023-02-12T05:50:17.041Z,11.4
2023-02-12T05:52:17.044Z,11.3
2023-02-12T05:54:16.984Z,11.3
2023-02-12T05:56:17.015Z,11.2
2023-02-12T05:58:17.009Z,11.1
2023-02-12T06:00:19.882Z,11.1
2023-02-12T06:02:17.037Z,11
2023-02-12T06:04:17.065Z,11.1
2023-02-12T06:06:16.964Z,11.1
2023-02-12T06:08:16.966Z,11.1
2023-02-12T06:10:16.962Z,11.2
2023-02-12T06:12:16.993Z,11.2
2023-02-12T06:14:17.008Z,11.2
2023-02-12T06:16:17.021Z,11.1
2023-02-12T06:18:16.966Z,11.2
2023-02-12T06:20:16.970Z,11.1
2023-02-12T06:22:16.951Z,11.1
2023-02-12T06:24:16.972Z,11.1
2023-02-12T06:26:17.009Z,11.1
2023-02-12T06:28:16.989Z,11.1
2023-02-12T06:30:17.015Z,11.1
2023-02-12T06:32:17.001Z,11.1
2023-02-12T06:34:16.964Z,11.2
2023-02-12T06:36:16.971Z,11.2
2023-02-12T06:38:16.917Z,11.3
2023-02-12T06:40:16.942Z,11.3
2023-02-12T06:42:16.966Z,11.3
2023-02-12T06:44:16.940Z,11.3
2023-02-12T06:46:18.220Z,11.3
2023-02-12T06:48:17.060Z,11.3
2023-02-12T06:50:16.974Z,11.3
2023-02-12T06:52:16.909Z,11.4
2023-02-12T06:54:16.946Z,11.4
2023-02-12T06:56:16.948Z,11.4
2023-02-12T06:58:16.918Z,11.5
2023-02-12T07:00:16.892Z,11.5
2023-02-12T07:02:16.908Z,11.4
2023-02-12T07:04:16.992Z,11.4
2023-02-12T07:06:16.901Z,11.4
2023-02-12T07:08:16.905Z,11.5
2023-02-12T07:10:16.889Z,11.5
2023-02-12T07:12:16.902Z,11.4
2023-02-12T07:14:16.896Z,11.4
2023-02-12T07:16:16.954Z,11.5
2023-02-12T07:18:16.909Z,11.5
2023-02-12T07:20:16.883Z,11.5
2023-02-12T07:22:16.864Z,11.5
2023-02-12T07:24:16.875Z,11.5
2023-02-12T07:26:16.893Z,11.5
2023-02-12T07:28:16.978Z,11.4
2023-02-12T07:30:16.916Z,11.4
2023-02-12T07:32:17.076Z,11.4
2023-02-12T07:34:16.854Z,11.4
2023-02-12T07:36:16.879Z,11.3
2023-02-12T07:38:16.864Z,11.4
2023-02-12T07:40:16.848Z,11.2
2023-02-12T07:42:16.863Z,11.2
2023-02-12T07:44:16.866Z,11.2
2023-02-12T07:46:16.908Z,11.1
2023-02-12T07:48:16.872Z,11.2
2023-02-12T07:50:16.868Z,11.2
2023-02-12T07:52:16.830Z,11.2
2023-02-12T07:54:16.845Z,11.2
2023-02-12T07:56:16.879Z,11.1
2023-02-12T07:58:16.843Z,11.3
2023-02-12T08:00:16.844Z,11.3
2023-02-12T08:02:16.854Z,11.3
2023-02-12T08:04:16.917Z,11.2
2023-02-12T08:06:16.834Z,11.3
2023-02-12T08:08:16.820Z,11.3
2023-02-12T08:10:16.885Z,11.3
2023-02-12T08:12:16.827Z,11.2
2023-02-12T08:14:16.824Z,11.3
2023-02-12T08:16:16.867Z,11.2
2023-02-12T08:18:16.821Z,11.1
2023-02-12T08:20:16.806Z,11
2023-02-12T08:22:16.862Z,10.8
2023-02-12T08:24:16.803Z,10.8
2023-02-12T08:26:16.836Z,10.6
2023-02-12T08:28:16.909Z,10.6
2023-02-12T08:30:16.832Z,10.5
2023-02-12T08:32:16.835Z,10.4
2023-02-12T08:34:16.843Z,10.3
2023-02-12T08:36:16.805Z,10.3
2023-02-12T08:38:16.776Z,10.2
2023-02-12T08:40:16.787Z,10.2
2023-02-12T08:42:16.780Z,10.1
2023-02-12T08:44:16.843Z,10.1
2023-02-12T08:46:16.887Z,10
2023-02-12T08:48:16.832Z,10
2023-02-12T08:50:16.806Z,9.9
2023-02-12T08:52:16.821Z,9.9
2023-02-12T08:54:16.818Z,9.8
2023-02-12T08:56:16.785Z,9.8
2023-02-12T08:58:16.804Z,9.8
2023-02-12T09:00:16.796Z,9.7
2023-02-12T09:02:16.933Z,9.6
2023-02-12T09:04:16.727Z,9.5
2023-02-12T09:06:16.815Z,9.5
2023-02-12T09:08:16.731Z,9.6
2023-02-12T09:10:16.749Z,9.6
2023-02-12T09:12:18.029Z,9.6
2023-02-12T09:14:16.818Z,9.6
2023-02-12T09:16:16.782Z,9.5
2023-02-12T09:18:16.744Z,9.5
2023-02-12T09:20:16.714Z,9.5
2023-02-12T09:22:16.805Z,9.5
2023-02-12T09:24:16.707Z,9.5
2023-02-12T09:26:16.712Z,9.5
2023-02-12T09:28:16.766Z,9.6
2023-02-12T09:30:16.732Z,9.5
2023-02-12T09:32:16.822Z,9.6
2023-02-12T09:34:16.704Z,9.5
2023-02-12T09:36:16.714Z,9.5
2023-02-12T09:38:16.723Z,9.5
2023-02-12T09:40:16.694Z,9.5
2023-02-12T09:42:16.690Z,9.5
2023-02-12T09:44:16.698Z,9.5
2023-02-12T09:46:16.715Z,9.5
2023-02-12T09:48:16.697Z,9.5
2023-02-12T09:50:16.706Z,9.5
2023-02-12T09:52:16.686Z,9.5
2023-02-12T09:54:18.156Z,9.5
2023-02-12T09:56:16.730Z,9.4
2023-02-12T09:58:16.719Z,9.5
2023-02-12T10:00:16.802Z,9.5
2023-02-12T10:02:16.719Z,9.4
2023-02-12T10:04:16.734Z,9.5
2023-02-12T10:06:16.789Z,9.4
2023-02-12T10:08:16.716Z,9.5
2023-02-12T10:10:16.794Z,9.4
2023-02-12T10:12:16.750Z,9.4
2023-02-12T10:14:16.666Z,9.3
2023-02-12T10:16:16.902Z,9.4
2023-02-12T10:18:16.693Z,9.4
2023-02-12T10:20:16.678Z,9.4
2023-02-12T10:22:16.674Z,9.4
2023-02-12T10:24:16.765Z,9.3
2023-02-12T10:26:16.675Z,9.4
2023-02-12T10:28:16.757Z,9.4
2023-02-12T10:30:16.662Z,9.4
2023-02-12T10:32:16.660Z,9.4
2023-02-12T10:34:16.654Z,9.4
2023-02-12T10:36:16.640Z,9.4
2023-02-12T10:38:16.707Z,9.5
2023-02-12T10:40:16.648Z,9.4
2023-02-12T10:42:16.688Z,9.6
2023-02-12T10:44:16.678Z,9.5
2023-02-12T10:46:16.955Z,9.4
2023-02-12T10:48:17.032Z,9.5
2023-02-12T10:50:16.672Z,9.6
2023-02-12T10:52:16.637Z,9.5
2023-02-12T10:54:16.656Z,9.5
2023-02-12T10:56:16.638Z,9.4
2023-02-12T10:58:16.629Z,9.5
2023-02-12T11:00:16.684Z,9.5
2023-02-12T11:02:16.663Z,9.5
2023-02-12T11:04:16.627Z,9.4
2023-02-12T11:06:17.932Z,9.4
2023-02-12T11:08:16.623Z,9.5
2023-02-12T11:10:16.630Z,9.6
2023-02-12T11:12:16.646Z,9.6
2023-02-12T11:14:16.903Z,9.6
2023-02-12T11:16:18.043Z,9.5
2023-02-12T11:18:16.618Z,9.7
2023-02-12T11:20:16.613Z,9.7
2023-02-12T11:22:16.640Z,9.8
2023-02-12T11:24:16.628Z,9.9
2023-02-12T11:26:16.641Z,9.9
2023-02-12T11:28:16.773Z,9.9
2023-02-12T11:30:16.656Z,9.9
2023-02-12T11:32:16.647Z,9.9
2023-02-12T11:34:16.581Z,9.8
2023-02-12T11:36:16.552Z,9.8
2023-02-12T11:38:16.561Z,10
2023-02-12T11:40:16.545Z,9.9
2023-02-12T11:42:16.828Z,9.9
2023-02-12T11:44:16.554Z,9.9
2023-02-12T11:46:16.645Z,9.9
2023-02-12T11:48:16.600Z,9.9
2023-02-12T11:50:16.576Z,10
2023-02-12T11:52:16.572Z,10.2
2023-02-12T11:54:16.551Z,10.1
2023-02-12T11:56:16.528Z,10.1
2023-02-12T11:58:16.550Z,10.1
2023-02-12T12:00:16.576Z,10
2023-02-12T12:02:16.548Z,10
2023-02-12T12:04:16.528Z,10.1
2023-02-12T12:06:16.560Z,10
2023-02-12T12:08:16.866Z,10.1
2023-02-12T12:10:16.511Z,10.1
2023-02-12T12:12:16.605Z,10
2023-02-12T12:14:16.533Z,10.1
2023-02-12T12:16:35.445Z,10.3
2023-02-12T12:18:17.997Z,10.4
2023-02-12T12:20:16.586Z,10.3
2023-02-12T12:22:16.725Z,10.3
2023-02-12T12:24:16.513Z,10.3
2023-02-12T12:25:21.229Z,10.3
2023-02-12T12:26:18.571Z,10.3
2023-02-12T12:27:27.427Z,10.3
2023-02-12T12:28:26.100Z,10.3
2023-02-12T12:30:16.827Z,10.4
2023-02-12T12:31:15.347Z,10.4
2023-02-12T12:32:17.712Z,10.5
2023-02-12T12:33:37.452Z,10.5
2023-02-12T12:34:21.178Z,10.5
2023-02-12T12:52:51.065Z,10.9
2023-02-12T12:54:29.674Z,10.9
2023-02-12T12:56:29.640Z,11
2023-02-12T12:58:29.598Z,11.1
2023-02-12T13:00:29.725Z,11
2023-02-12T13:02:29.669Z,11.1
2023-02-12T13:04:29.822Z,11
2023-02-12T13:06:29.791Z,11
2023-02-12T13:08:30.307Z,11
2023-02-12T13:10:29.938Z,11
2023-02-12T13:12:32.175Z,11.1
2023-02-12T13:14:29.598Z,11.1
2023-02-12T13:16:29.717Z,11.1
2023-02-12T13:18:29.630Z,11.3
2023-02-12T13:20:29.677Z,11.3
2023-02-12T13:22:30.725Z,11.3
2023-02-12T13:24:52.264Z,11.3
2023-02-12T13:26:29.772Z,11.3
2023-02-12T13:27:49.266Z,11.4
2023-02-12T13:29:20.495Z,11.5
2023-02-12T13:31:32.326Z,11.5
2023-02-12T13:33:19.395Z,11.6
2023-02-12T13:35:20.868Z,11.7
2023-02-12T13:37:19.445Z,11.7
2023-02-12T13:39:19.458Z,11.9
2023-02-12T13:41:20.082Z,11.8
2023-02-12T13:43:21.331Z,11.8
2023-02-12T13:45:26.993Z,11.8
2023-02-12T13:47:20.685Z,11.8
2023-02-12T13:49:20.785Z,11.9
2023-02-12T13:51:20.644Z,11.9
2023-02-12T13:53:19.408Z,11.9
2023-02-12T13:55:19.633Z,12
2023-02-12T13:57:19.607Z,12
2023-02-12T13:59:19.432Z,12.1
2023-02-12T14:01:19.490Z,12.2
2023-02-12T14:03:19.392Z,12.2
2023-02-12T14:05:19.464Z,12.2
2023-02-12T14:07:19.451Z,12.3
2023-02-12T14:09:19.358Z,12.4
2023-02-12T14:11:22.029Z,12.3
2023-02-12T14:13:21.097Z,12.4
2023-02-12T14:15:19.495Z,12.5
2023-02-12T14:17:19.404Z,12.5
2023-02-12T14:19:19.624Z,12.5
2023-02-12T14:21:20.666Z,12.5
2023-02-12T14:23:19.361Z,12.4
2023-02-12T14:25:19.415Z,12.4
2023-02-12T14:27:19.359Z,12.5
2023-02-12T14:29:19.378Z,12.6
2023-02-12T14:31:19.605Z,12.6
2023-02-12T14:33:19.315Z,12.6
2023-02-12T14:35:19.337Z,12.6
2023-02-12T14:37:19.473Z,12.6
2023-02-12T14:39:19.425Z,12.7
2023-02-12T14:41:19.376Z,12.7
2023-02-12T14:43:19.390Z,12.8
2023-02-12T14:45:19.408Z,12.8
2023-02-12T14:47:19.375Z,12.8
2023-02-12T14:49:19.353Z,12.9
2023-02-12T14:51:19.328Z,12.8
2023-02-12T14:53:20.532Z,12.9
2023-02-12T14:55:24.288Z,13
2023-02-12T14:57:26.916Z,13
2023-02-12T14:59:27.016Z,13
2023-02-12T15:01:31.845Z,12.9
2023-02-12T15:03:19.322Z,12.9
2023-02-12T15:05:19.551Z,12.9
2023-02-12T15:07:19.362Z,12.9
2023-02-12T15:09:21.920Z,12.9
2023-02-12T15:11:20.252Z,13
2023-02-12T15:13:19.422Z,13
2023-02-12T15:14:42.546Z,13
2023-02-12T15:15:20.691Z,12.9
2023-02-12T15:17:13.098Z,12.9
2023-02-12T15:19:25.400Z,13
2023-02-12T15:21:20.518Z,13
2023-02-12T15:23:19.285Z,13
2023-02-12T15:25:20.561Z,13
2023-02-12T15:27:19.286Z,12.8
2023-02-12T15:29:19.349Z,12.9
2023-02-12T15:31:19.722Z,13.1
2023-02-12T15:33:19.374Z,12.9
2023-02-12T15:35:19.432Z,12.8
2023-02-12T15:37:19.506Z,12.7
2023-02-12T15:39:19.407Z,12.6
2023-02-12T15:41:19.262Z,12.5
2023-02-12T15:43:19.320Z,12.5
2023-02-12T15:45:19.277Z,12.6
2023-02-12T15:47:19.245Z,12.5
2023-02-12T15:49:23.567Z,12.6
2023-02-12T15:51:19.220Z,12.6
2023-02-12T15:53:19.351Z,12.6
2023-02-12T15:55:20.435Z,12.5
2023-02-12T15:57:20.491Z,12.6
2023-02-12T15:59:19.383Z,12.6
2023-02-12T16:01:19.283Z,12.5
2023-02-12T16:03:21.755Z,12.6
2023-02-12T16:05:19.282Z,12.6
2023-02-12T16:07:19.266Z,12.6
2023-02-12T16:09:19.416Z,12.8
2023-02-12T16:11:19.327Z,12.8
2023-02-12T16:13:21.878Z,12.9
2023-02-12T16:15:19.211Z,12.8
2023-02-12T16:17:19.261Z,13
2023-02-12T16:19:19.258Z,13.1
2023-02-12T16:21:19.189Z,13.2
2023-02-12T16:23:19.297Z,13.1
2023-02-12T16:25:23.360Z,13.1
2023-02-12T16:27:22.978Z,13.3
2023-02-12T16:29:19.242Z,13.4
2023-02-12T16:30:16.095Z,13.4
2023-02-12T16:31:19.480Z,13.3
2023-02-12T16:33:19.212Z,13.5
2023-02-12T16:35:19.579Z,13.5
2023-02-12T16:37:19.228Z,13.5
2023-02-12T16:39:19.293Z,13.7
2023-02-12T16:41:19.304Z,13.7
2023-02-12T16:43:20.344Z,13.7
2023-02-12T16:45:19.292Z,13.7
2023-02-12T16:47:19.198Z,13.8
2023-02-12T16:49:19.344Z,13.9
2023-02-12T16:50:29.563Z,13.9
2023-02-12T16:51:19.239Z,14
2023-02-12T16:53:19.193Z,14.1
2023-02-12T16:55:19.233Z,14.3
2023-02-12T16:57:19.170Z,14.3
2023-02-12T16:59:19.174Z,14.3
2023-02-12T17:01:19.394Z,14.5
2023-02-12T17:03:19.327Z,14.4
2023-02-12T17:05:19.244Z,14.6
2023-02-12T17:07:19.196Z,14.5
2023-02-12T17:09:19.193Z,14.7
2023-02-12T17:11:19.194Z,14.8
2023-02-12T17:13:19.276Z,14.6
2023-02-12T17:15:19.194Z,14.6
2023-02-12T17:17:19.432Z,14.7
2023-02-12T17:19:19.076Z,14.7
2023-02-12T17:21:20.570Z,14.6
2023-02-12T17:23:19.418Z,14.4
2023-02-12T17:25:19.173Z,14.5
2023-02-12T17:27:19.200Z,14.5
2023-02-12T17:29:19.105Z,14.4
2023-02-12T17:31:19.288Z,14.3
2023-02-12T17:33:20.414Z,14.4
2023-02-12T17:35:19.260Z,14.4
2023-02-12T17:37:19.109Z,14.3
2023-02-12T17:39:19.077Z,14.2
2023-02-12T17:41:19.165Z,14.1
2023-02-12T17:43:19.084Z,14.1
2023-02-12T17:45:19.135Z,14.1
2023-02-12T17:47:19.067Z,14.2
2023-02-12T17:49:19.118Z,14.1
2023-02-12T17:51:19.164Z,14.1
2023-02-12T17:53:19.079Z,14.2
2023-02-12T17:55:19.082Z,14.1
2023-02-12T17:57:19.193Z,14.2
2023-02-12T17:59:19.083Z,14.3
2023-02-12T18:01:19.204Z,14.3
2023-02-12T18:03:19.122Z,14.3
2023-02-12T18:05:19.157Z,14.3
2023-02-12T18:07:19.234Z,14.5
2023-02-12T18:09:21.705Z,14.3
2023-02-12T18:11:19.098Z,14.2
2023-02-12T18:13:19.100Z,14.2
2023-02-12T18:15:19.269Z,14.1
2023-02-12T18:17:16.102Z,14.1
2023-02-12T18:17:20.498Z,14
2023-02-12T18:19:24.786Z,14
2023-02-12T18:21:13.405Z,14
2023-02-12T18:21:19.092Z,13.9
2023-02-12T18:23:19.176Z,13.8
2023-02-12T18:25:41.078Z,13.8
2023-02-12T18:27:20.003Z,13.9
2023-02-12T18:29:21.098Z,14.2
2023-02-12T18:31:19.274Z,14.2
2023-02-12T18:33:19.370Z,14.1
2023-02-12T18:35:19.742Z,14.2
2023-02-12T18:37:38.201Z,14
2023-02-12T18:39:21.050Z,14.1
2023-02-12T18:41:20.393Z,14
2023-02-12T18:43:20.237Z,14.1
2023-02-12T18:45:19.051Z,14.3
2023-02-12T18:47:19.687Z,14.3
2023-02-12T18:49:19.002Z,14.1
2023-02-12T18:51:19.055Z,14
2023-02-12T18:53:19.068Z,14.1
2023-02-12T18:55:19.124Z,14
2023-02-12T18:57:20.224Z,13.9
2023-02-12T18:59:20.218Z,14
2023-02-12T19:01:19.126Z,13.9
2023-02-12T19:03:19.052Z,14.1
2023-02-12T19:05:19.145Z,14.1
2023-02-12T19:07:20.101Z,14.3
2023-02-12T19:09:19.034Z,14.4
2023-02-12T19:11:18.986Z,14.4
2023-02-12T19:13:19.127Z,14.3
2023-02-12T19:15:19.166Z,14.2
2023-02-12T19:17:19.031Z,14.3
2023-02-12T19:19:20.120Z,14.3
2023-02-12T19:21:19.113Z,14.3
2023-02-12T19:23:19.258Z,14.3
2023-02-12T19:25:19.013Z,14.2
2023-02-12T19:27:19.022Z,14.1
2023-02-12T19:29:20.348Z,14.1
2023-02-12T19:31:19.256Z,14.1
2023-02-12T19:33:19.047Z,14.3
2023-02-12T19:35:18.951Z,14.7
2023-02-12T19:37:20.305Z,15
2023-02-12T19:39:20.357Z,15
2023-02-12T19:41:19.016Z,14.7
2023-02-12T19:43:20.199Z,14.8
2023-02-12T19:45:19.135Z,14.8
2023-02-12T19:47:20.197Z,14.9
2023-02-12T19:49:19.552Z,14.7
2023-02-12T19:51:21.075Z,14.6
2023-02-12T19:53:18.960Z,14.6
2023-02-12T19:54:53.375Z,14.6
2023-02-12T19:55:19.011Z,14.7
2023-02-12T19:57:19.022Z,14.6
2023-02-12T19:59:29.534Z,14.8
2023-02-12T20:01:19.057Z,14.6
2023-02-12T20:03:20.153Z,14.6
2023-02-12T20:04:07.493Z,14.6
2023-02-12T20:05:29.241Z,14.5
2023-02-12T20:07:19.114Z,14.6
2023-02-12T20:09:21.458Z,14.6
2023-02-12T20:11:19.020Z,14.5
2023-02-12T20:13:29.183Z,14.6
2023-02-12T20:14:38.614Z,14.6
2023-02-12T20:15:33.368Z,14.7
2023-02-12T20:17:25.002Z,14.8
2023-02-12T20:19:19.156Z,14.9
2023-02-12T20:21:19.012Z,14.8
2023-02-12T20:23:18.955Z,14.8
2023-02-12T20:25:18.877Z,14.9
2023-02-12T20:27:20.222Z,14.8
2023-02-12T20:29:18.988Z,14.9
2023-02-12T20:31:29.756Z,14.8
2023-02-12T20:33:19.957Z,14.8
2023-02-12T20:35:18.955Z,14.8
2023-02-12T20:37:24.608Z,14.8
2023-02-12T20:39:19.175Z,14.9
2023-02-12T20:41:18.987Z,14.9
2023-02-12T20:43:23.093Z,14.8
2023-02-12T20:45:20.436Z,14.7
2023-02-12T20:47:18.900Z,14.7
2023-02-12T20:49:18.931Z,14.6
2023-02-12T20:51:20.346Z,14.7
2023-02-12T20:53:18.914Z,14.8
2023-02-12T20:55:18.857Z,14.8
2023-02-12T20:57:22.965Z,14.9
2023-02-12T20:59:21.775Z,14.9
2023-02-12T21:01:18.971Z,14.9
2023-02-12T21:03:41.520Z,14.8
2023-02-12T21:05:18.914Z,14.9
2023-02-12T21:07:18.925Z,14.7
2023-02-12T21:09:21.480Z,14.8
2023-02-12T21:11:27.979Z,14.7
2023-02-12T21:13:18.984Z,14.7
2023-02-12T21:15:18.934Z,14.6
2023-02-12T21:17:18.929Z,14.6
2023-02-12T21:19:19.000Z,14.8
2023-02-12T21:21:18.916Z,14.7
2023-02-12T21:23:18.949Z,14.7
2023-02-12T21:25:18.779Z,14.7
2023-02-12T21:27:18.758Z,14.9
2023-02-12T21:29:18.962Z,15.1
2023-02-12T21:31:20.024Z,15.2
2023-02-12T21:33:21.336Z,15.1
2023-02-12T21:35:18.897Z,15.1
2023-02-12T21:37:18.857Z,14.9
2023-02-12T21:39:18.846Z,15.1
2023-02-12T21:41:26.761Z,15.2
2023-02-12T21:43:18.854Z,15
2023-02-12T21:45:19.002Z,15
2023-02-12T21:47:18.800Z,14.9
2023-02-12T21:49:18.919Z,15
2023-02-12T21:51:18.872Z,15.1
2023-02-12T21:53:18.925Z,15
2023-02-12T21:55:18.809Z,15
2023-02-12T21:57:18.785Z,15.1
2023-02-12T21:59:18.847Z,15.1
2023-02-12T22:01:18.911Z,15.1
2023-02-12T22:03:18.811Z,15
2023-02-12T22:05:18.874Z,14.9
2023-02-12T22:07:20.965Z,14.9
2023-02-12T22:09:18.774Z,14.9
2023-02-12T22:11:18.989Z,15
2023-02-12T22:13:18.791Z,15.1
2023-02-12T22:15:18.784Z,15
2023-02-12T22:17:18.753Z,15
2023-02-12T22:19:18.814Z,15.3
2023-02-12T22:21:18.789Z,15.1
2023-02-12T22:23:18.814Z,15
2023-02-12T22:25:18.741Z,15
2023-02-12T22:27:20.114Z,15.1
2023-02-12T22:29:18.861Z,15.2
2023-02-12T22:31:19.881Z,15.2
2023-02-12T22:33:18.712Z,15.2
2023-02-12T22:35:18.781Z,15.2
2023-02-12T22:37:18.777Z,15.1
2023-02-12T22:39:20.016Z,15.3
2023-02-12T22:41:18.715Z,15.4
2023-02-12T22:43:18.723Z,15.3
2023-02-12T22:45:20.055Z,15.3
2023-02-12T22:47:18.685Z,15.3
2023-02-12T22:49:20.136Z,15.3
2023-02-12T22:51:18.879Z,15.3
2023-02-12T22:53:18.855Z,15.4
2023-02-12T22:55:21.242Z,15.3
2023-02-12T22:57:18.701Z,15.3
2023-02-12T22:59:18.679Z,15.4
2023-02-12T23:01:18.807Z,15.3
2023-02-12T23:03:18.797Z,15.3
2023-02-12T23:05:18.679Z,15.3
2023-02-12T23:07:18.680Z,15.3
2023-02-12T23:09:18.701Z,15.3
2023-02-12T23:11:18.608Z,15.3
2023-02-12T23:13:29.142Z,15.3
2023-02-12T23:15:18.631Z,15.4
2023-02-12T23:17:18.650Z,15.4
2023-02-12T23:19:18.675Z,15.5
2023-02-12T23:21:18.630Z,15.6
2023-02-12T23:23:18.621Z,15.4
2023-02-12T23:25:18.718Z,15.3
2023-02-12T23:27:18.684Z,15.4
2023-02-12T23:29:19.895Z,15.3
2023-02-12T23:31:18.855Z,15.4
2023-02-12T23:33:18.697Z,15.5
2023-02-12T23:35:30.879Z,15.6
2023-02-12T23:37:41.253Z,15.5
2023-02-12T23:39:18.637Z,15.4
2023-02-12T23:41:18.600Z,15.5
2023-02-12T23:43:18.633Z,15.4
2023-02-12T23:45:18.629Z,15.3
2023-02-12T23:47:18.639Z,15.3
2023-02-12T23:49:18.626Z,15.4
2023-02-12T23:51:18.658Z,15.5
2023-02-12T23:53:18.617Z,15.4
2023-02-12T23:55:18.640Z,15.3
2023-02-12T23:57:18.607Z,15.3
2023-02-12T23:59:18.676Z,15.3
